sensor_id;sensor_type;location;lat;lon;timestamp;temperature;humidity
1355;DHT22;671;48.972;9.276;2022-12-18T00:01:00;-7.90;99.90
1355;DHT22;671;48.972;9.276;2022-12-18T00:03:29;-7.90;99.90
1355;DHT22;671;48.972;9.276;2022-12-18T00:05:55;-7.90;99.90
1355;DHT22;671;48.972;9.276;2022-12-18T00:08:22;-7.90;99.90
1355;DHT22;671;48.972;9.276;2022-12-18T00:10:48;-7.90;99.90
1355;DHT22;671;48.972;9.276;2022-12-18T00:13:15;-7.90;99.90
1355;DHT22;671;48.972;9.276;2022-12-18T00:15:41;-8.00;99.90
1355;DHT22;671;48.972;9.276;2022-12-18T00:18:08;-8.00;99.90
1355;DHT22;671;48.972;9.276;2022-12-18T00:20:39;-8.00;99.90
1355;DHT22;671;48.972;9.276;2022-12-18T00:23:06;-8.10;99.90
1355;DHT22;671;48.972;9.276;2022-12-18T00:25:34;-8.20;99.90
1355;DHT22;671;48.972;9.276;2022-12-18T00:28:04;-8.20;99.90
1355;DHT22;671;48.972;9.276;2022-12-18T00:30:31;-8.10;99.90
1355;DHT22;671;48.972;9.276;2022-12-18T00:32:57;-8.10;99.90
1355;DHT22;671;48.972;9.276;2022-12-18T00:35:24;-8.10;99.90
1355;DHT22;671;48.972;9.276;2022-12-18T00:37:50;-8.20;99.90
1355;DHT22;671;48.972;9.276;2022-12-18T00:40:15;-8.20;99.90
1355;DHT22;671;48.972;9.276;2022-12-18T00:42:41;-8.20;99.90
1355;DHT22;671;48.972;9.276;2022-12-18T00:45:30;-8.20;99.90
1355;DHT22;671;48.972;9.276;2022-12-18T00:47:57;-8.30;99.90
1355;DHT22;671;48.972;9.276;2022-12-18T00:50:25;-8.20;99.90
1355;DHT22;671;48.972;9.276;2022-12-18T00:52:51;-8.20;99.90
1355;DHT22;671;48.972;9.276;2022-12-18T00:55:18;-8.20;99.90
1355;DHT22;671;48.972;9.276;2022-12-18T00:57:45;-8.20;99.90
1355;DHT22;671;48.972;9.276;2022-12-18T01:00:13;-8.20;99.90
1355;DHT22;671;48.972;9.276;2022-12-18T01:02:40;-8.30;99.90
1355;DHT22;671;48.972;9.276;2022-12-18T01:05:08;-8.30;99.90
1355;DHT22;671;48.972;9.276;2022-12-18T01:07:35;-8.30;99.90
1355;DHT22;671;48.972;9.276;2022-12-18T01:10:01;-8.30;99.90
1355;DHT22;671;48.972;9.276;2022-12-18T01:12:28;-8.30;99.90
1355;DHT22;671;48.972;9.276;2022-12-18T01:14:54;-8.30;99.90
1355;DHT22;671;48.972;9.276;2022-12-18T01:17:21;-8.30;99.90
1355;DHT22;671;48.972;9.276;2022-12-18T01:19:48;-8.30;99.90
1355;DHT22;671;48.972;9.276;2022-12-18T01:22:14;-8.30;99.90
1355;DHT22;671;48.972;9.276;2022-12-18T01:24:41;-8.30;99.90
1355;DHT22;671;48.972;9.276;2022-12-18T01:27:07;-8.20;99.90
1355;DHT22;671;48.972;9.276;2022-12-18T01:29:34;-8.20;99.90
1355;DHT22;671;48.972;9.276;2022-12-18T01:32:00;-8.40;99.90
1355;DHT22;671;48.972;9.276;2022-12-18T01:34:27;-8.30;99.90
1355;DHT22;671;48.972;9.276;2022-12-18T01:36:53;-8.30;99.90
1355;DHT22;671;48.972;9.276;2022-12-18T01:39:20;-8.20;99.90
1355;DHT22;671;48.972;9.276;2022-12-18T01:41:47;-8.20;99.90
1355;DHT22;671;48.972;9.276;2022-12-18T01:44:53;-8.20;99.90
1355;DHT22;671;48.972;9.276;2022-12-18T01:49:53;-8.30;99.90
1355;DHT22;671;48.972;9.276;2022-12-18T01:52:20;-8.30;99.90
1355;DHT22;671;48.972;9.276;2022-12-18T01:54:49;-8.30;99.90
1355;DHT22;671;48.972;9.276;2022-12-18T01:57:16;-8.30;99.90
1355;DHT22;671;48.972;9.276;2022-12-18T01:59:45;-8.40;99.90
1355;DHT22;671;48.972;9.276;2022-12-18T02:02:16;-8.40;99.90
1355;DHT22;671;48.972;9.276;2022-12-18T02:04:43;-8.40;99.90
1355;DHT22;671;48.972;9.276;2022-12-18T02:10:05;-8.40;99.90
1355;DHT22;671;48.972;9.276;2022-12-18T02:12:47;-8.40;99.90
1355;DHT22;671;48.972;9.276;2022-12-18T02:15:30;-8.40;99.90
1355;DHT22;671;48.972;9.276;2022-12-18T02:28:49;-8.30;99.90
1355;DHT22;671;48.972;9.276;2022-12-18T02:31:28;-8.30;99.90
1355;DHT22;671;48.972;9.276;2022-12-18T02:34:00;-8.30;99.90
1355;DHT22;671;48.972;9.276;2022-12-18T02:36:28;-8.40;99.90
1355;DHT22;671;48.972;9.276;2022-12-18T02:38:56;-8.30;99.90
1355;DHT22;671;48.972;9.276;2022-12-18T02:41:25;-8.30;99.90
1355;DHT22;671;48.972;9.276;2022-12-18T02:43:58;-8.30;99.90
1355;DHT22;671;48.972;9.276;2022-12-18T02:49:12;-8.30;99.90
1355;DHT22;671;48.972;9.276;2022-12-18T02:54:26;-8.30;99.90
1355;DHT22;671;48.972;9.276;2022-12-18T02:57:02;-8.30;99.90
1355;DHT22;671;48.972;9.276;2022-12-18T02:59:35;-8.30;99.90
1355;DHT22;671;48.972;9.276;2022-12-18T03:02:17;-8.30;99.90
1355;DHT22;671;48.972;9.276;2022-12-18T03:04:58;-8.30;99.90
1355;DHT22;671;48.972;9.276;2022-12-18T03:07:34;-8.30;99.90
1355;DHT22;671;48.972;9.276;2022-12-18T03:10:02;-8.20;99.90
1355;DHT22;671;48.972;9.276;2022-12-18T03:12:32;-8.30;99.90
1355;DHT22;671;48.972;9.276;2022-12-18T03:17:37;-8.20;99.90
1355;DHT22;671;48.972;9.276;2022-12-18T03:20:09;-8.30;99.90
1355;DHT22;671;48.972;9.276;2022-12-18T03:22:37;-8.30;99.90
1355;DHT22;671;48.972;9.276;2022-12-18T03:25:06;-8.20;99.90
1355;DHT22;671;48.972;9.276;2022-12-18T03:27:37;-8.20;99.90
1355;DHT22;671;48.972;9.276;2022-12-18T03:30:07;-8.20;99.90
1355;DHT22;671;48.972;9.276;2022-12-18T03:32:52;-8.30;99.90
1355;DHT22;671;48.972;9.276;2022-12-18T03:35:29;-8.40;99.90
1355;DHT22;671;48.972;9.276;2022-12-18T03:37:57;-8.40;99.90
1355;DHT22;671;48.972;9.276;2022-12-18T03:40:29;-8.30;99.90
1355;DHT22;671;48.972;9.276;2022-12-18T03:43:10;-8.40;99.90
1355;DHT22;671;48.972;9.276;2022-12-18T03:45:43;-8.40;99.90
1355;DHT22;671;48.972;9.276;2022-12-18T03:48:24;-8.40;99.90
1355;DHT22;671;48.972;9.276;2022-12-18T03:50:56;-8.40;99.90
1355;DHT22;671;48.972;9.276;2022-12-18T03:53:41;-8.30;99.90
1355;DHT22;671;48.972;9.276;2022-12-18T03:56:10;-8.30;99.90
1355;DHT22;671;48.972;9.276;2022-12-18T03:58:38;-8.30;99.90
1355;DHT22;671;48.972;9.276;2022-12-18T04:01:12;-8.40;99.90
1355;DHT22;671;48.972;9.276;2022-12-18T04:03:41;-8.40;99.90
1355;DHT22;671;48.972;9.276;2022-12-18T04:06:10;-8.40;99.90
1355;DHT22;671;48.972;9.276;2022-12-18T04:08:37;-8.50;99.90
1355;DHT22;671;48.972;9.276;2022-12-18T04:11:06;-8.50;99.90
1355;DHT22;671;48.972;9.276;2022-12-18T04:13:36;-8.50;99.90
1355;DHT22;671;48.972;9.276;2022-12-18T04:16:03;-8.50;99.90
1355;DHT22;671;48.972;9.276;2022-12-18T04:18:30;-8.50;99.90
1355;DHT22;671;48.972;9.276;2022-12-18T04:20:57;-8.50;99.90
1355;DHT22;671;48.972;9.276;2022-12-18T04:23:23;-8.50;99.90
1355;DHT22;671;48.972;9.276;2022-12-18T04:25:50;-8.50;99.90
1355;DHT22;671;48.972;9.276;2022-12-18T04:28:16;-8.40;99.90
1355;DHT22;671;48.972;9.276;2022-12-18T04:30:42;-8.40;99.90
1355;DHT22;671;48.972;9.276;2022-12-18T04:33:13;-8.40;99.90
1355;DHT22;671;48.972;9.276;2022-12-18T04:35:40;-8.40;99.90
1355;DHT22;671;48.972;9.276;2022-12-18T04:38:08;-8.40;99.90
1355;DHT22;671;48.972;9.276;2022-12-18T04:40:35;-8.40;99.90
1355;DHT22;671;48.972;9.276;2022-12-18T04:43:01;-8.40;99.90
1355;DHT22;671;48.972;9.276;2022-12-18T04:45:28;-8.40;99.90
1355;DHT22;671;48.972;9.276;2022-12-18T04:47:54;-8.50;99.90
1355;DHT22;671;48.972;9.276;2022-12-18T04:50:25;-8.50;99.90
1355;DHT22;671;48.972;9.276;2022-12-18T04:52:51;-8.50;99.90
1355;DHT22;671;48.972;9.276;2022-12-18T04:55:27;-8.50;99.90
1355;DHT22;671;48.972;9.276;2022-12-18T04:57:53;-8.50;99.90
1355;DHT22;671;48.972;9.276;2022-12-18T05:00:20;-8.50;99.90
1355;DHT22;671;48.972;9.276;2022-12-18T05:02:47;-8.50;99.90
1355;DHT22;671;48.972;9.276;2022-12-18T05:05:13;-8.40;99.90
1355;DHT22;671;48.972;9.276;2022-12-18T05:07:40;-8.40;99.90
1355;DHT22;671;48.972;9.276;2022-12-18T05:10:07;-8.40;99.90
1355;DHT22;671;48.972;9.276;2022-12-18T05:12:33;-8.40;99.90
1355;DHT22;671;48.972;9.276;2022-12-18T05:15:03;-8.40;99.90
1355;DHT22;671;48.972;9.276;2022-12-18T05:17:29;-8.40;99.90
1355;DHT22;671;48.972;9.276;2022-12-18T05:19:56;-8.40;99.90
1355;DHT22;671;48.972;9.276;2022-12-18T05:22:22;-8.40;99.90
1355;DHT22;671;48.972;9.276;2022-12-18T05:24:48;-8.50;99.90
1355;DHT22;671;48.972;9.276;2022-12-18T05:27:15;-8.60;99.90
1355;DHT22;671;48.972;9.276;2022-12-18T05:29:41;-8.60;99.90
1355;DHT22;671;48.972;9.276;2022-12-18T05:32:08;-8.60;99.90
1355;DHT22;671;48.972;9.276;2022-12-18T05:34:34;-8.70;99.90
1355;DHT22;671;48.972;9.276;2022-12-18T05:37:01;-8.70;99.90
1355;DHT22;671;48.972;9.276;2022-12-18T05:39:27;-8.70;99.90
1355;DHT22;671;48.972;9.276;2022-12-18T05:41:54;-8.80;99.90
1355;DHT22;671;48.972;9.276;2022-12-18T05:44:20;-8.80;99.90
1355;DHT22;671;48.972;9.276;2022-12-18T05:46:47;-8.80;99.90
1355;DHT22;671;48.972;9.276;2022-12-18T05:49:13;-8.80;99.90
1355;DHT22;671;48.972;9.276;2022-12-18T05:51:40;-8.80;99.90
1355;DHT22;671;48.972;9.276;2022-12-18T05:54:06;-8.80;99.90
1355;DHT22;671;48.972;9.276;2022-12-18T05:56:32;-8.70;99.90
1355;DHT22;671;48.972;9.276;2022-12-18T05:58:59;-8.80;99.90
1355;DHT22;671;48.972;9.276;2022-12-18T06:01:26;-8.70;99.90
1355;DHT22;671;48.972;9.276;2022-12-18T06:03:53;-8.70;99.90
1355;DHT22;671;48.972;9.276;2022-12-18T06:06:25;-8.70;99.90
1355;DHT22;671;48.972;9.276;2022-12-18T06:08:52;-8.70;99.90
1355;DHT22;671;48.972;9.276;2022-12-18T06:11:22;-8.70;99.90
1355;DHT22;671;48.972;9.276;2022-12-18T06:13:53;-8.70;99.90
1355;DHT22;671;48.972;9.276;2022-12-18T06:16:20;-8.70;99.90
1355;DHT22;671;48.972;9.276;2022-12-18T06:18:48;-8.70;99.90
1355;DHT22;671;48.972;9.276;2022-12-18T06:21:14;-8.80;99.90
1355;DHT22;671;48.972;9.276;2022-12-18T06:23:41;-8.90;99.90
1355;DHT22;671;48.972;9.276;2022-12-18T06:26:10;-8.80;99.90
1355;DHT22;671;48.972;9.276;2022-12-18T06:28:37;-8.90;99.90
1355;DHT22;671;48.972;9.276;2022-12-18T06:31:05;-8.90;99.90
1355;DHT22;671;48.972;9.276;2022-12-18T06:33:32;-8.90;99.90
1355;DHT22;671;48.972;9.276;2022-12-18T06:36:10;-8.90;99.90
1355;DHT22;671;48.972;9.276;2022-12-18T06:38:38;-9.00;99.90
1355;DHT22;671;48.972;9.276;2022-12-18T06:41:13;-9.00;99.90
1355;DHT22;671;48.972;9.276;2022-12-18T06:43:40;-8.90;99.90
1355;DHT22;671;48.972;9.276;2022-12-18T06:46:07;-9.00;99.90
1355;DHT22;671;48.972;9.276;2022-12-18T06:48:34;-9.00;99.90
1355;DHT22;671;48.972;9.276;2022-12-18T06:51:01;-9.00;99.90
1355;DHT22;671;48.972;9.276;2022-12-18T06:53:27;-9.00;99.90
1355;DHT22;671;48.972;9.276;2022-12-18T06:56:07;-9.00;99.90
1355;DHT22;671;48.972;9.276;2022-12-18T06:58:33;-9.00;99.90
1355;DHT22;671;48.972;9.276;2022-12-18T07:01:01;-9.00;99.90
1355;DHT22;671;48.972;9.276;2022-12-18T07:03:28;-9.00;99.90
1355;DHT22;671;48.972;9.276;2022-12-18T07:05:55;-9.00;99.90
1355;DHT22;671;48.972;9.276;2022-12-18T07:08:21;-9.00;99.90
1355;DHT22;671;48.972;9.276;2022-12-18T07:10:48;-9.00;99.90
1355;DHT22;671;48.972;9.276;2022-12-18T07:13:17;-9.00;99.90
1355;DHT22;671;48.972;9.276;2022-12-18T07:15:44;-9.00;99.90
1355;DHT22;671;48.972;9.276;2022-12-18T07:18:10;-9.00;99.90
1355;DHT22;671;48.972;9.276;2022-12-18T07:20:37;-9.00;99.90
1355;DHT22;671;48.972;9.276;2022-12-18T07:23:04;-8.90;99.90
1355;DHT22;671;48.972;9.276;2022-12-18T07:25:34;-8.90;99.90
1355;DHT22;671;48.972;9.276;2022-12-18T07:28:01;-8.80;99.90
1355;DHT22;671;48.972;9.276;2022-12-18T07:30:28;-8.80;99.90
1355;DHT22;671;48.972;9.276;2022-12-18T07:32:54;-8.80;99.90
1355;DHT22;671;48.972;9.276;2022-12-18T07:35:21;-8.70;99.90
1355;DHT22;671;48.972;9.276;2022-12-18T07:37:47;-8.70;99.90
1355;DHT22;671;48.972;9.276;2022-12-18T07:40:14;-8.70;99.90
1355;DHT22;671;48.972;9.276;2022-12-18T07:42:40;-8.70;99.90
1355;DHT22;671;48.972;9.276;2022-12-18T07:45:07;-8.60;99.90
1355;DHT22;671;48.972;9.276;2022-12-18T07:47:35;-8.60;99.90
1355;DHT22;671;48.972;9.276;2022-12-18T07:50:05;-8.60;99.90
1355;DHT22;671;48.972;9.276;2022-12-18T07:52:34;-8.50;99.90
1355;DHT22;671;48.972;9.276;2022-12-18T07:55:01;-8.50;99.90
1355;DHT22;671;48.972;9.276;2022-12-18T07:57:27;-8.40;99.90
1355;DHT22;671;48.972;9.276;2022-12-18T07:59:54;-8.40;99.90
1355;DHT22;671;48.972;9.276;2022-12-18T08:02:20;-8.30;99.90
1355;DHT22;671;48.972;9.276;2022-12-18T08:04:47;-8.20;99.90
1355;DHT22;671;48.972;9.276;2022-12-18T08:07:13;-8.10;99.90
1355;DHT22;671;48.972;9.276;2022-12-18T08:09:40;-8.00;99.90
1355;DHT22;671;48.972;9.276;2022-12-18T08:12:06;-8.00;99.90
1355;DHT22;671;48.972;9.276;2022-12-18T08:14:32;-7.90;99.90
1355;DHT22;671;48.972;9.276;2022-12-18T08:16:59;-7.80;99.90
1355;DHT22;671;48.972;9.276;2022-12-18T08:19:25;-7.80;99.90
1355;DHT22;671;48.972;9.276;2022-12-18T08:21:52;-7.70;99.90
1355;DHT22;671;48.972;9.276;2022-12-18T08:24:18;-7.60;99.90
1355;DHT22;671;48.972;9.276;2022-12-18T08:26:48;-7.50;99.90
1355;DHT22;671;48.972;9.276;2022-12-18T08:29:14;-7.50;99.90
1355;DHT22;671;48.972;9.276;2022-12-18T08:31:40;-7.40;99.90
1355;DHT22;671;48.972;9.276;2022-12-18T08:34:07;-7.30;99.90
1355;DHT22;671;48.972;9.276;2022-12-18T08:36:34;-7.30;99.90
1355;DHT22;671;48.972;9.276;2022-12-18T08:39:00;-7.20;99.90
1355;DHT22;671;48.972;9.276;2022-12-18T08:41:27;-7.10;99.90
1355;DHT22;671;48.972;9.276;2022-12-18T08:43:53;-7.10;99.90
1355;DHT22;671;48.972;9.276;2022-12-18T08:46:41;-7.00;99.90
1355;DHT22;671;48.972;9.276;2022-12-18T08:49:08;-6.90;99.90
1355;DHT22;671;48.972;9.276;2022-12-18T08:51:35;-6.80;99.90
1355;DHT22;671;48.972;9.276;2022-12-18T08:54:04;-6.80;99.90
1355;DHT22;671;48.972;9.276;2022-12-18T08:56:31;-6.70;99.90
1355;DHT22;671;48.972;9.276;2022-12-18T08:58:57;-6.60;99.90
1355;DHT22;671;48.972;9.276;2022-12-18T09:01:24;-6.50;99.90
1355;DHT22;671;48.972;9.276;2022-12-18T09:03:51;-6.40;99.90
1355;DHT22;671;48.972;9.276;2022-12-18T09:06:19;-6.30;99.90
1355;DHT22;671;48.972;9.276;2022-12-18T09:08:46;-6.10;99.90
1355;DHT22;671;48.972;9.276;2022-12-18T09:11:22;-6.10;99.90
1355;DHT22;671;48.972;9.276;2022-12-18T09:13:49;-6.00;99.90
1355;DHT22;671;48.972;9.276;2022-12-18T09:16:16;-5.80;99.90
1355;DHT22;671;48.972;9.276;2022-12-18T09:18:42;-5.70;99.90
1355;DHT22;671;48.972;9.276;2022-12-18T09:21:14;-5.60;99.90
1355;DHT22;671;48.972;9.276;2022-12-18T09:23:48;-5.40;99.90
1355;DHT22;671;48.972;9.276;2022-12-18T09:26:14;-5.30;99.90
1355;DHT22;671;48.972;9.276;2022-12-18T09:28:41;-5.20;99.90
1355;DHT22;671;48.972;9.276;2022-12-18T09:31:08;-5.10;99.90
1355;DHT22;671;48.972;9.276;2022-12-18T09:33:36;-5.00;99.90
1355;DHT22;671;48.972;9.276;2022-12-18T09:36:05;-4.80;99.90
1355;DHT22;671;48.972;9.276;2022-12-18T09:38:34;-4.70;99.90
1355;DHT22;671;48.972;9.276;2022-12-18T09:46:06;-4.30;99.90
1355;DHT22;671;48.972;9.276;2022-12-18T09:48:46;-4.20;99.90
1355;DHT22;671;48.972;9.276;2022-12-18T09:51:21;-4.10;99.90
1355;DHT22;671;48.972;9.276;2022-12-18T09:53:55;-4.00;99.90
1355;DHT22;671;48.972;9.276;2022-12-18T09:56:25;-3.90;99.90
1355;DHT22;671;48.972;9.276;2022-12-18T10:01:24;-3.70;99.90
1355;DHT22;671;48.972;9.276;2022-12-18T10:03:51;-3.60;99.90
1355;DHT22;671;48.972;9.276;2022-12-18T10:06:38;-3.50;99.90
1355;DHT22;671;48.972;9.276;2022-12-18T10:09:34;-3.40;99.90
1355;DHT22;671;48.972;9.276;2022-12-18T10:12:14;-3.30;99.90
1355;DHT22;671;48.972;9.276;2022-12-18T10:17:58;-3.20;99.90
1355;DHT22;671;48.972;9.276;2022-12-18T10:28:14;-2.90;99.90
1355;DHT22;671;48.972;9.276;2022-12-18T10:30:42;-2.70;99.90
1355;DHT22;671;48.972;9.276;2022-12-18T10:33:18;-2.60;99.90
1355;DHT22;671;48.972;9.276;2022-12-18T10:35:45;-2.50;99.90
1355;DHT22;671;48.972;9.276;2022-12-18T10:41:06;-2.40;99.90
1355;DHT22;671;48.972;9.276;2022-12-18T10:43:39;-2.30;99.90
1355;DHT22;671;48.972;9.276;2022-12-18T10:53:57;-1.90;99.90
1355;DHT22;671;48.972;9.276;2022-12-18T10:56:26;-1.90;99.90
1355;DHT22;671;48.972;9.276;2022-12-18T10:59:02;-1.80;99.90
1355;DHT22;671;48.972;9.276;2022-12-18T11:01:52;-1.70;99.90
1355;DHT22;671;48.972;9.276;2022-12-18T11:04:25;-1.50;99.90
1355;DHT22;671;48.972;9.276;2022-12-18T11:07:10;-1.50;99.90
1355;DHT22;671;48.972;9.276;2022-12-18T11:09:39;-1.30;99.90
1355;DHT22;671;48.972;9.276;2022-12-18T11:12:18;-1.30;99.90
1355;DHT22;671;48.972;9.276;2022-12-18T11:14:49;-1.10;99.90
1355;DHT22;671;48.972;9.276;2022-12-18T11:19:53;-1.00;99.90
1355;DHT22;671;48.972;9.276;2022-12-18T11:22:29;-0.90;99.90
1355;DHT22;671;48.972;9.276;2022-12-18T11:25:00;-0.80;99.90
1355;DHT22;671;48.972;9.276;2022-12-18T11:27:28;-0.70;99.90
1355;DHT22;671;48.972;9.276;2022-12-18T11:33:14;-0.40;99.90
1355;DHT22;671;48.972;9.276;2022-12-18T11:35:58;-0.30;99.90
1355;DHT22;671;48.972;9.276;2022-12-18T11:38:39;-0.30;99.90
1355;DHT22;671;48.972;9.276;2022-12-18T11:43:59;-0.30;99.90
1355;DHT22;671;48.972;9.276;2022-12-18T11:46:51;-0.30;99.90
1355;DHT22;671;48.972;9.276;2022-12-18T11:49:33;-0.30;99.90
1355;DHT22;671;48.972;9.276;2022-12-18T11:52:24;-0.40;99.90
1355;DHT22;671;48.972;9.276;2022-12-18T11:54:58;-0.30;99.90
1355;DHT22;671;48.972;9.276;2022-12-18T11:57:40;-0.20;99.90
1355;DHT22;671;48.972;9.276;2022-12-18T12:00:22;-0.20;99.90
1355;DHT22;671;48.972;9.276;2022-12-18T12:08:34;0.00;99.90
1355;DHT22;671;48.972;9.276;2022-12-18T12:11:12;0.00;99.90
1355;DHT22;671;48.972;9.276;2022-12-18T12:14:00;0.00;99.90
1355;DHT22;671;48.972;9.276;2022-12-18T12:28:52;0.10;99.90
1355;DHT22;671;48.972;9.276;2022-12-18T12:33:56;0.20;99.90
1355;DHT22;671;48.972;9.276;2022-12-18T12:36:39;0.30;99.90
1355;DHT22;671;48.972;9.276;2022-12-18T12:39:11;0.30;99.90
1355;DHT22;671;48.972;9.276;2022-12-18T12:41:39;0.40;99.90
1355;DHT22;671;48.972;9.276;2022-12-18T12:44:29;0.40;99.90
1355;DHT22;671;48.972;9.276;2022-12-18T12:47:04;0.40;99.90
1355;DHT22;671;48.972;9.276;2022-12-18T12:49:33;0.40;99.90
1355;DHT22;671;48.972;9.276;2022-12-18T12:52:10;0.50;99.90
1355;DHT22;671;48.972;9.276;2022-12-18T12:54:38;0.60;99.90
1355;DHT22;671;48.972;9.276;2022-12-18T12:57:26;0.60;99.90
1355;DHT22;671;48.972;9.276;2022-12-18T13:00:07;0.70;99.90
1355;DHT22;671;48.972;9.276;2022-12-18T13:08:11;0.70;99.90
1355;DHT22;671;48.972;9.276;2022-12-18T13:10:42;0.70;99.90
1355;DHT22;671;48.972;9.276;2022-12-18T13:13:16;0.80;99.90
1355;DHT22;671;48.972;9.276;2022-12-18T13:15:48;0.80;99.90
1355;DHT22;671;48.972;9.276;2022-12-18T13:18:23;0.80;99.90
1355;DHT22;671;48.972;9.276;2022-12-18T13:25:56;0.80;99.90
1355;DHT22;671;48.972;9.276;2022-12-18T13:34:27;0.80;99.90
1355;DHT22;671;48.972;9.276;2022-12-18T13:37:33;0.90;99.90
1355;DHT22;671;48.972;9.276;2022-12-18T13:39:43;1.00;99.90
1355;DHT22;671;48.972;9.276;2022-12-18T13:44:56;1.00;99.90
1355;DHT22;671;48.972;9.276;2022-12-18T13:47:35;1.00;99.90
1355;DHT22;671;48.972;9.276;2022-12-18T13:50:24;1.00;99.90
1355;DHT22;671;48.972;9.276;2022-12-18T13:52:53;1.00;99.90
1355;DHT22;671;48.972;9.276;2022-12-18T13:55:20;1.00;99.90
1355;DHT22;671;48.972;9.276;2022-12-18T13:57:48;1.00;99.90
1355;DHT22;671;48.972;9.276;2022-12-18T14:00:29;1.00;99.90
1355;DHT22;671;48.972;9.276;2022-12-18T14:02:56;1.00;99.90
1355;DHT22;671;48.972;9.276;2022-12-18T14:05:35;1.00;99.90
1355;DHT22;671;48.972;9.276;2022-12-18T14:08:08;1.00;99.90
1355;DHT22;671;48.972;9.276;2022-12-18T14:10:39;0.90;99.90
1355;DHT22;671;48.972;9.276;2022-12-18T14:13:09;0.90;99.90
1355;DHT22;671;48.972;9.276;2022-12-18T14:15:40;0.80;99.90
1355;DHT22;671;48.972;9.276;2022-12-18T14:20:56;0.70;99.90
1355;DHT22;671;48.972;9.276;2022-12-18T14:23:40;0.60;99.90
1355;DHT22;671;48.972;9.276;2022-12-18T14:26:25;0.50;99.90
1355;DHT22;671;48.972;9.276;2022-12-18T14:28:57;0.40;99.90
1355;DHT22;671;48.972;9.276;2022-12-18T14:31:26;0.40;99.90
1355;DHT22;671;48.972;9.276;2022-12-18T14:33:54;0.30;99.90
1355;DHT22;671;48.972;9.276;2022-12-18T14:36:26;0.30;99.90
1355;DHT22;671;48.972;9.276;2022-12-18T14:38:55;0.20;99.90
1355;DHT22;671;48.972;9.276;2022-12-18T14:41:23;0.20;99.90
1355;DHT22;671;48.972;9.276;2022-12-18T14:43:52;0.10;99.90
1355;DHT22;671;48.972;9.276;2022-12-18T14:46:34;0.10;99.90
1355;DHT22;671;48.972;9.276;2022-12-18T14:49:29;0.00;99.90
1355;DHT22;671;48.972;9.276;2022-12-18T14:52:04;0.00;99.90
1355;DHT22;671;48.972;9.276;2022-12-18T14:54:33;-0.10;99.90
1355;DHT22;671;48.972;9.276;2022-12-18T14:57:17;-0.20;99.90
1355;DHT22;671;48.972;9.276;2022-12-18T14:59:44;-0.20;99.90
1355;DHT22;671;48.972;9.276;2022-12-18T15:02:24;-0.30;99.90
1355;DHT22;671;48.972;9.276;2022-12-18T15:05:04;-0.30;99.90
1355;DHT22;671;48.972;9.276;2022-12-18T15:07:51;-0.40;99.90
1355;DHT22;671;48.972;9.276;2022-12-18T15:10:27;-0.50;99.90
1355;DHT22;671;48.972;9.276;2022-12-18T15:20:46;-0.60;99.90
1355;DHT22;671;48.972;9.276;2022-12-18T15:23:45;-0.70;99.90
1355;DHT22;671;48.972;9.276;2022-12-18T15:26:14;-0.70;99.90
1355;DHT22;671;48.972;9.276;2022-12-18T15:28:52;-0.80;99.90
1355;DHT22;671;48.972;9.276;2022-12-18T15:31:32;-0.80;99.90
1355;DHT22;671;48.972;9.276;2022-12-18T15:36:36;-0.90;99.90
1355;DHT22;671;48.972;9.276;2022-12-18T15:39:03;-1.00;99.90
1355;DHT22;671;48.972;9.276;2022-12-18T15:41:32;-1.10;99.90
1355;DHT22;671;48.972;9.276;2022-12-18T15:44:15;-1.10;99.90
1355;DHT22;671;48.972;9.276;2022-12-18T15:46:47;-1.10;99.90
1355;DHT22;671;48.972;9.276;2022-12-18T15:49:14;-1.20;99.90
1355;DHT22;671;48.972;9.276;2022-12-18T15:51:40;-1.20;99.90
1355;DHT22;671;48.972;9.276;2022-12-18T15:54:11;-1.30;99.90
1355;DHT22;671;48.972;9.276;2022-12-18T15:56:39;-1.30;99.90
1355;DHT22;671;48.972;9.276;2022-12-18T15:59:24;-1.30;99.90
1355;DHT22;671;48.972;9.276;2022-12-18T16:01:51;-1.40;99.90
1355;DHT22;671;48.972;9.276;2022-12-18T16:04:22;-1.40;99.90
1355;DHT22;671;48.972;9.276;2022-12-18T16:06:49;-1.40;99.90
1355;DHT22;671;48.972;9.276;2022-12-18T16:09:15;-1.50;99.90
1355;DHT22;671;48.972;9.276;2022-12-18T16:11:43;-1.50;99.90
1355;DHT22;671;48.972;9.276;2022-12-18T16:14:25;-1.50;99.90
1355;DHT22;671;48.972;9.276;2022-12-18T16:16:58;-1.50;99.90
1355;DHT22;671;48.972;9.276;2022-12-18T16:19:25;-1.60;99.90
1355;DHT22;671;48.972;9.276;2022-12-18T16:21:54;-1.60;99.90
1355;DHT22;671;48.972;9.276;2022-12-18T16:24:23;-1.60;99.90
1355;DHT22;671;48.972;9.276;2022-12-18T16:26:50;-1.60;99.90
1355;DHT22;671;48.972;9.276;2022-12-18T16:29:18;-1.60;99.90
1355;DHT22;671;48.972;9.276;2022-12-18T16:31:45;-1.60;99.90
1355;DHT22;671;48.972;9.276;2022-12-18T16:34:28;-1.60;99.90
1355;DHT22;671;48.972;9.276;2022-12-18T16:37:00;-1.60;99.90
1355;DHT22;671;48.972;9.276;2022-12-18T16:39:27;-1.60;99.90
1355;DHT22;671;48.972;9.276;2022-12-18T16:41:54;-1.60;99.90
1355;DHT22;671;48.972;9.276;2022-12-18T16:44:23;-1.70;99.90
1355;DHT22;671;48.972;9.276;2022-12-18T16:46:50;-1.70;99.90
1355;DHT22;671;48.972;9.276;2022-12-18T16:49:17;-1.70;99.90
1355;DHT22;671;48.972;9.276;2022-12-18T16:51:45;-1.60;99.90
1355;DHT22;671;48.972;9.276;2022-12-18T16:54:12;-1.60;99.90
1355;DHT22;671;48.972;9.276;2022-12-18T16:56:38;-1.60;99.90
1355;DHT22;671;48.972;9.276;2022-12-18T16:59:05;-1.60;99.90
1355;DHT22;671;48.972;9.276;2022-12-18T17:01:32;-1.60;99.90
1355;DHT22;671;48.972;9.276;2022-12-18T17:04:04;-1.50;99.90
1355;DHT22;671;48.972;9.276;2022-12-18T17:06:34;-1.50;99.90
1355;DHT22;671;48.972;9.276;2022-12-18T17:09:12;-1.40;99.90
1355;DHT22;671;48.972;9.276;2022-12-18T17:11:42;-1.50;99.90
1355;DHT22;671;48.972;9.276;2022-12-18T17:14:13;-1.50;99.90
1355;DHT22;671;48.972;9.276;2022-12-18T17:16:40;-1.50;99.90
1355;DHT22;671;48.972;9.276;2022-12-18T17:19:07;-1.50;99.90
1355;DHT22;671;48.972;9.276;2022-12-18T17:21:34;-1.40;99.90
1355;DHT22;671;48.972;9.276;2022-12-18T17:24:01;-1.40;99.90
1355;DHT22;671;48.972;9.276;2022-12-18T17:26:28;-1.50;99.90
1355;DHT22;671;48.972;9.276;2022-12-18T17:28:56;-1.50;99.90
1355;DHT22;671;48.972;9.276;2022-12-18T17:31:25;-1.50;99.90
1355;DHT22;671;48.972;9.276;2022-12-18T17:33:52;-1.50;99.90
1355;DHT22;671;48.972;9.276;2022-12-18T17:36:19;-1.50;99.90
1355;DHT22;671;48.972;9.276;2022-12-18T17:38:56;-1.50;99.90
1355;DHT22;671;48.972;9.276;2022-12-18T17:41:24;-1.50;99.90
1355;DHT22;671;48.972;9.276;2022-12-18T17:43:55;-1.50;99.90
1355;DHT22;671;48.972;9.276;2022-12-18T17:46:23;-1.50;99.90
1355;DHT22;671;48.972;9.276;2022-12-18T17:48:51;-1.50;99.90
1355;DHT22;671;48.972;9.276;2022-12-18T17:51:18;-1.50;99.90
1355;DHT22;671;48.972;9.276;2022-12-18T17:53:44;-1.50;99.90
1355;DHT22;671;48.972;9.276;2022-12-18T17:56:13;-1.50;99.90
1355;DHT22;671;48.972;9.276;2022-12-18T17:58:40;-1.50;99.90
1355;DHT22;671;48.972;9.276;2022-12-18T18:01:07;-1.50;99.90
1355;DHT22;671;48.972;9.276;2022-12-18T18:03:34;-1.50;99.90
1355;DHT22;671;48.972;9.276;2022-12-18T18:06:04;-1.50;99.90
1355;DHT22;671;48.972;9.276;2022-12-18T18:08:30;-1.50;99.90
1355;DHT22;671;48.972;9.276;2022-12-18T18:10:57;-1.50;99.90
1355;DHT22;671;48.972;9.276;2022-12-18T18:13:46;-1.50;99.90
1355;DHT22;671;48.972;9.276;2022-12-18T18:16:30;-1.50;99.90
1355;DHT22;671;48.972;9.276;2022-12-18T18:19:02;-1.50;99.90
1355;DHT22;671;48.972;9.276;2022-12-18T18:21:29;-1.60;99.90
1355;DHT22;671;48.972;9.276;2022-12-18T18:23:59;-1.60;99.90
1355;DHT22;671;48.972;9.276;2022-12-18T18:26:26;-1.70;99.90
1355;DHT22;671;48.972;9.276;2022-12-18T18:28:54;-1.60;99.90
1355;DHT22;671;48.972;9.276;2022-12-18T18:31:21;-1.70;99.90
1355;DHT22;671;48.972;9.276;2022-12-18T18:33:47;-1.70;99.90
1355;DHT22;671;48.972;9.276;2022-12-18T18:36:14;-1.60;99.90